Time;durP1;ratioP1;P1;durP2;ratioP2;P2;SDS_P1;SDS_P2;PMS_P1;PMS_P2;Temp;Humidity;BMP_temperature;BMP_pressure;BME280_temperature;BME280_humidity;BME280_pressure;Samples;Min_cycle;Max_cycle;Signal;HPM_P1;HPM_P2
2023/06/21 00:00:12;;;;;;;23.75;18.80;;;;;;;18.08;100.00;101083.41;5012830;28;20032;-67
2023/06/21 00:02:38;;;;;;;22.00;17.58;;;;;;;18.07;100.00;101082.59;5011779;28;20026;-67
2023/06/21 00:05:04;;;;;;;22.40;18.40;;;;;;;18.06;100.00;101085.72;5013318;28;20025;-67
2023/06/21 00:07:29;;;;;;;23.30;18.55;;;;;;;18.06;100.00;101099.72;5013171;28;20029;-67
2023/06/21 00:09:54;;;;;;;24.17;19.45;;;;;;;18.01;100.00;101097.16;5011503;28;20026;-67
2023/06/21 00:12:20;;;;;;;23.95;18.95;;;;;;;18.01;100.00;101100.78;5013077;28;20496;-67
2023/06/21 00:14:45;;;;;;;22.95;18.75;;;;;;;18.00;100.00;101093.53;5012961;28;20029;-67
2023/06/21 00:17:11;;;;;;;24.52;19.15;;;;;;;17.99;100.00;101100.34;5013085;28;20026;-67
2023/06/21 00:19:36;;;;;;;23.08;19.05;;;;;;;17.93;100.00;101110.91;5012913;28;20073;-67
2023/06/21 00:22:02;;;;;;;23.25;19.05;;;;;;;17.96;100.00;101106.63;5010953;28;20121;-68
2023/06/21 00:24:27;;;;;;;23.13;18.05;;;;;;;17.99;100.00;101105.94;5012421;28;20030;-68
2023/06/21 00:26:53;;;;;;;24.65;19.30;;;;;;;17.95;100.00;101104.94;5012481;28;20156;-68
2023/06/21 00:29:18;;;;;;;23.50;18.98;;;;;;;17.93;100.00;101108.13;5012509;28;20118;-68
2023/06/21 00:31:44;;;;;;;24.58;20.13;;;;;;;17.91;100.00;101118.00;5012649;28;20458;-67
2023/06/21 00:34:10;;;;;;;24.10;19.85;;;;;;;17.89;100.00;101120.34;5012517;28;20029;-67
2023/06/21 00:36:41;;;;;;;24.08;19.55;;;;;;;17.90;100.00;101106.00;5012373;28;20505;-68
2023/06/21 00:39:07;;;;;;;23.88;19.48;;;;;;;17.86;100.00;101107.84;5012885;28;20029;-68
2023/06/21 00:41:33;;;;;;;23.83;19.10;;;;;;;17.86;100.00;101107.06;5012267;28;20711;-67
2023/06/21 00:43:58;;;;;;;23.17;19.05;;;;;;;17.87;100.00;101108.69;5012556;28;20105;-66
2023/06/21 00:46:24;;;;;;;24.85;19.92;;;;;;;17.84;100.00;101112.19;5012355;28;20033;-67
2023/06/21 00:48:49;;;;;;;24.20;20.17;;;;;;;17.83;100.00;101116.13;5012347;28;20061;-68
2023/06/21 00:51:15;;;;;;;23.42;19.40;;;;;;;17.80;100.00;101114.88;5012292;28;20088;-68
2023/06/21 00:53:41;;;;;;;24.95;20.13;;;;;;;17.78;100.00;101126.41;5012271;28;20108;-67
2023/06/21 00:56:06;;;;;;;23.65;19.70;;;;;;;17.79;100.00;101121.63;5012262;28;20030;-67
2023/06/21 00:58:33;;;;;;;24.27;20.95;;;;;;;17.81;100.00;101122.09;5012067;28;20022;-68
2023/06/21 01:00:58;;;;;;;24.70;20.75;;;;;;;17.77;100.00;101119.19;5012078;28;20079;-68
2023/06/21 01:03:24;;;;;;;26.23;19.95;;;;;;;17.80;100.00;101126.06;5012219;28;20037;-68
2023/06/21 01:06:06;;;;;;;23.88;19.77;;;;;;;17.78;100.00;101128.38;5010796;28;20029;-68
2023/06/21 01:08:58;;;;;;;25.05;20.60;;;;;;;17.77;100.00;101135.13;5012073;28;20034;-68
2023/06/21 01:11:28;;;;;;;24.98;20.88;;;;;;;17.71;100.00;101131.75;5009324;28;20045;-68
2023/06/21 01:14:14;;;;;;;25.70;21.00;;;;;;;17.71;100.00;101126.16;4995491;28;20030;-67
2023/06/21 01:16:43;;;;;;;25.45;20.75;;;;;;;17.75;100.00;101135.50;4995266;28;20855;-67
2023/06/21 01:19:28;;;;;;;23.88;19.85;;;;;;;17.74;100.00;101138.66;4996444;28;20033;-66
2023/06/21 01:21:57;;;;;;;24.38;21.00;;;;;;;17.76;100.00;101139.94;4996574;28;20031;-67
2023/06/21 01:24:40;;;;;;;26.70;21.80;;;;;;;17.74;100.00;101136.66;4996395;28;20026;-68
2023/06/21 01:27:37;;;;;;;24.98;20.63;;;;;;;17.73;100.00;101125.81;4996583;28;20030;-68
2023/06/21 01:30:04;;;;;;;25.33;20.23;;;;;;;17.69;100.00;101127.66;4996128;28;20132;-68
2023/06/21 01:32:30;;;;;;;24.95;21.27;;;;;;;17.71;100.00;101134.53;4996200;28;20382;-68
2023/06/21 01:34:56;;;;;;;25.58;20.63;;;;;;;17.67;100.00;101135.59;4995882;28;20039;-67
2023/06/21 01:37:22;;;;;;;25.55;21.25;;;;;;;17.67;100.00;101139.22;4995899;28;20090;-68
2023/06/21 01:39:47;;;;;;;25.27;21.67;;;;;;;17.67;100.00;101141.19;4995851;28;20041;-68
2023/06/21 01:42:12;;;;;;;26.35;21.25;;;;;;;17.66;100.00;101142.38;4995871;28;20034;-68
2023/06/21 01:44:38;;;;;;;25.90;21.40;;;;;;;17.65;100.00;101147.13;4995720;28;20034;-68
2023/06/21 01:47:04;;;;;;;26.10;22.50;;;;;;;17.66;100.00;101150.78;4995787;28;20038;-68
2023/06/21 01:49:30;;;;;;;26.20;21.00;;;;;;;17.66;100.00;101154.38;4995677;28;20030;-68
2023/06/21 01:51:56;;;;;;;25.58;21.85;;;;;;;17.66;100.00;101154.38;4995875;28;20493;-67
2023/06/21 01:54:25;;;;;;;26.13;21.52;;;;;;;17.62;100.00;101150.63;4995792;28;20492;-68
2023/06/21 01:56:55;;;;;;;25.10;21.55;;;;;;;17.61;100.00;101149.81;4995903;28;20030;-68
2023/06/21 01:59:21;;;;;;;26.02;21.98;;;;;;;17.60;100.00;101152.97;4994318;28;20042;-68
2023/06/21 02:01:50;;;;;;;26.88;22.13;;;;;;;17.56;100.00;101147.25;4995622;28;20073;-68
2023/06/21 02:04:16;;;;;;;25.70;21.58;;;;;;;17.54;100.00;101149.56;4995567;28;20058;-68
2023/06/21 02:06:42;;;;;;;25.33;21.42;;;;;;;17.56;100.00;101160.41;4995608;28;20081;-68
2023/06/21 02:09:09;;;;;;;25.40;21.90;;;;;;;17.54;100.00;101157.97;4995413;28;20030;-68
2023/06/21 02:11:36;;;;;;;26.70;22.08;;;;;;;17.52;100.00;101165.09;4995429;28;20034;-68
2023/06/21 02:14:01;;;;;;;26.13;22.83;;;;;;;17.50;100.00;101175.78;4995403;28;20085;-68
2023/06/21 02:16:29;;;;;;;26.35;22.00;;;;;;;17.46;100.00;101179.28;4995332;28;20027;-68
2023/06/21 02:18:54;;;;;;;26.00;21.63;;;;;;;17.50;100.00;101165.41;4993914;28;20113;-68
2023/06/21 02:21:20;;;;;;;26.05;21.83;;;;;;;17.46;100.00;101167.28;4995365;28;20098;-68
2023/06/21 02:23:45;;;;;;;25.52;22.55;;;;;;;17.44;100.00;101164.81;4994614;28;20102;-68
2023/06/21 02:26:10;;;;;;;26.77;22.95;;;;;;;17.44;100.00;101176.00;4995175;28;20465;-68
2023/06/21 02:28:36;;;;;;;25.70;22.45;;;;;;;17.43;100.00;101187.53;4995178;28;20054;-68
2023/06/21 02:31:02;;;;;;;26.23;22.25;;;;;;;17.40;100.00;101188.22;4995142;28;20039;-68
2023/06/21 02:33:27;;;;;;;26.05;22.48;;;;;;;17.39;100.00;101195.81;4995130;28;20652;-68
2023/06/21 02:35:52;;;;;;;25.65;22.45;;;;;;;17.37;100.00;101195.31;4995197;28;20028;-68
2023/06/21 02:38:19;;;;;;;26.65;22.30;;;;;;;17.36;100.00;101188.09;4994906;28;20034;-68
2023/06/21 02:40:44;;;;;;;26.08;22.70;;;;;;;17.36;100.00;101187.28;4994951;28;20026;-68
2023/06/21 02:43:10;;;;;;;27.55;22.80;;;;;;;17.33;100.00;101199.16;4994865;28;20030;-67
2023/06/21 02:45:36;;;;;;;29.10;23.77;;;;;;;17.31;100.00;101216.28;4994906;28;20525;-66
2023/06/21 02:48:02;;;;;;;27.00;22.90;;;;;;;17.30;100.00;101204.25;4994714;28;20034;-66
2023/06/21 02:50:27;;;;;;;27.98;23.45;;;;;;;17.28;100.00;101202.97;4994870;28;20037;-66
2023/06/21 02:52:52;;;;;;;27.73;23.77;;;;;;;17.27;100.00;101207.75;4994649;28;20026;-69
2023/06/21 02:55:18;;;;;;;29.45;24.65;;;;;;;17.24;100.00;101207.63;4994783;28;20034;-66
2023/06/21 02:57:44;;;;;;;28.45;24.67;;;;;;;17.20;100.00;101209.47;4994541;28;20084;-66
2023/06/21 03:00:23;;;;;;;28.65;23.70;;;;;;;17.21;100.00;101219.50;4994549;28;20085;-66
2023/06/21 03:02:49;;;;;;;28.38;24.10;;;;;;;17.18;100.00;101211.78;4994531;28;20034;-67
2023/06/21 03:05:15;;;;;;;27.80;23.83;;;;;;;17.18;100.00;101222.97;4994345;28;20027;-66
2023/06/21 03:07:44;;;;;;;26.40;23.08;;;;;;;17.17;100.00;101222.16;4994242;28;20026;-66
2023/06/21 03:10:15;;;;;;;27.83;23.85;;;;;;;17.16;100.00;101231.72;4994397;28;20030;-66
2023/06/21 03:12:41;;;;;;;27.95;24.23;;;;;;;17.16;100.00;101234.50;4994213;28;20022;-67
2023/06/21 03:15:08;;;;;;;28.60;24.73;;;;;;;17.14;100.00;101242.41;4994345;28;20101;-67
2023/06/21 03:17:34;;;;;;;29.08;24.77;;;;;;;17.10;100.00;101233.88;4994224;28;20059;-66
2023/06/21 03:19:59;;;;;;;29.08;25.98;;;;;;;17.11;100.00;101245.88;4994081;28;20101;-67
2023/06/21 03:22:24;;;;;;;29.95;26.33;;;;;;;17.09;100.00;101262.19;4993797;28;20018;-67
2023/06/21 03:24:50;;;;;;;29.35;25.55;;;;;;;17.08;100.00;101258.56;4993991;28;20030;-69
2023/06/21 03:27:15;;;;;;;27.88;24.83;;;;;;;17.09;100.00;101254.59;4993917;28;20034;-67
2023/06/21 03:29:41;;;;;;;29.95;25.13;;;;;;;17.10;100.00;101261.00;5004266;28;20449;-67
2023/06/21 03:32:06;;;;;;;28.08;25.08;;;;;;;17.10;100.00;101272.19;5013471;28;20034;-67
2023/06/21 03:34:32;;;;;;;27.90;24.40;;;;;;;17.14;100.00;101268.38;5013463;28;20085;-67
2023/06/21 03:36:57;;;;;;;29.30;25.77;;;;;;;17.15;100.00;101269.19;5012794;28;20057;-66
2023/06/21 03:39:22;;;;;;;27.98;24.45;;;;;;;17.16;100.00;101265.25;5013449;28;20026;-67
2023/06/21 03:41:47;;;;;;;29.27;23.92;;;;;;;17.18;100.00;101257.34;5011921;28;20481;-67
2023/06/21 03:44:13;;;;;;;27.85;23.70;;;;;;;17.26;100.00;101266.81;5013224;28;20037;-67
2023/06/21 03:46:39;;;;;;;27.95;23.30;;;;;;;17.30;100.00;101264.97;5013277;28;20041;-67
2023/06/21 03:49:05;;;;;;;30.33;24.17;;;;;;;17.37;100.00;101264.44;5013611;28;20041;-67
2023/06/21 03:51:30;;;;;;;27.40;23.77;;;;;;;17.37;100.00;101264.44;5013311;28;20032;-67
2023/06/21 03:53:55;;;;;;;27.52;23.15;;;;;;;17.43;100.00;101263.03;5013128;28;20026;-67
2023/06/21 03:56:21;;;;;;;27.98;23.23;;;;;;;17.56;100.00;101256.34;5013037;28;20517;-67
2023/06/21 03:58:46;;;;;;;29.00;23.52;;;;;;;17.68;100.00;101254.72;5011779;28;20034;-67
2023/06/21 04:01:11;;;;;;;28.40;22.55;;;;;;;17.72;100.00;101264.09;5013042;28;20381;-66
2023/06/21 04:03:37;;;;;;;29.20;22.98;;;;;;;17.78;100.00;101271.94;5011399;28;20049;-66
2023/06/21 04:06:02;;;;;;;27.25;22.23;;;;;;;17.80;100.00;101274.38;5013079;28;20485;-66
2023/06/21 04:08:27;;;;;;;26.30;21.98;;;;;;;17.83;100.00;101275.66;5012852;28;20030;-66
2023/06/21 04:10:53;;;;;;;28.00;23.13;;;;;;;17.87;100.00;101287.81;5012947;28;20049;-66
2023/06/21 04:13:18;;;;;;;26.27;21.02;;;;;;;17.90;100.00;101282.31;5012876;28;20378;-67
2023/06/21 04:15:43;;;;;;;27.45;22.20;;;;;;;17.96;100.00;101280.16;5012793;28;20030;-67
2023/06/21 04:18:09;;;;;;;27.58;22.45;;;;;;;18.00;100.00;101288.69;5012636;28;20451;-66
2023/06/21 04:20:34;;;;;;;27.80;22.73;;;;;;;18.04;100.00;101281.25;5012610;28;20071;-67
2023/06/21 04:22:59;;;;;;;27.90;23.33;;;;;;;18.06;100.00;101282.50;5012505;28;20026;-66
2023/06/21 04:25:24;;;;;;;28.67;24.23;;;;;;;18.07;100.00;101280.53;5012642;28;20103;-67
2023/06/21 04:27:50;;;;;;;27.85;23.48;;;;;;;18.07;100.00;101297.31;5010959;28;20680;-66
2023/06/21 04:30:16;;;;;;;27.95;22.67;;;;;;;18.06;100.00;101296.50;5012559;28;20091;-66
2023/06/21 04:32:45;;;;;;;27.85;22.77;;;;;;;18.05;100.00;101303.28;4993135;28;20049;-67
2023/06/21 04:35:16;;;;;;;28.25;23.88;;;;;;;18.04;100.00;101292.44;4993066;28;20027;-67
2023/06/21 04:37:45;;;;;;;27.75;23.25;;;;;;;18.06;100.00;101302.13;4993056;28;20161;-66
2023/06/21 04:40:21;;;;;;;28.20;24.30;;;;;;;18.02;100.00;101294.75;4992971;28;20076;-67
2023/06/21 04:42:47;;;;;;;28.70;24.13;;;;;;;18.03;100.00;101308.41;4993317;28;20124;-66
2023/06/21 04:45:14;;;;;;;29.98;25.45;;;;;;;18.07;100.00;101312.16;4993077;28;20112;-66
2023/06/21 04:47:46;;;;;;;27.98;24.38;;;;;;;18.13;100.00;101309.94;4992626;28;20039;-66
2023/06/21 04:50:12;;;;;;;28.63;24.77;;;;;;;18.22;100.00;101313.47;4992946;28;20517;-66
2023/06/21 04:52:37;;;;;;;28.17;24.48;;;;;;;18.35;100.00;101317.09;4992781;28;20052;-67
2023/06/21 04:55:07;;;;;;;29.35;24.98;;;;;;;18.41;100.00;101312.09;4991350;28;20479;-66
2023/06/21 04:57:33;;;;;;;28.75;24.83;;;;;;;18.42;100.00;101318.50;4992714;28;20031;-66
2023/06/21 04:59:59;;;;;;;29.58;24.15;;;;;;;18.45;100.00;101304.59;4992715;28;20029;-66
2023/06/21 05:02:24;;;;;;;30.33;24.13;;;;;;;18.54;100.00;101301.69;4992457;28;20027;-66
2023/06/21 05:04:50;;;;;;;28.15;23.63;;;;;;;18.63;100.00;101313.63;4992633;28;20104;-66
2023/06/21 05:07:15;;;;;;;29.50;24.20;;;;;;;18.70;100.00;101313.03;4992504;28;20501;-66
2023/06/21 05:09:41;;;;;;;29.40;24.90;;;;;;;18.81;100.00;101316.97;4992483;28;20035;-66
2023/06/21 05:12:08;;;;;;;28.83;24.80;;;;;;;18.89;100.00;101322.84;4992532;28;20146;-66
2023/06/21 05:14:34;;;;;;;31.13;25.67;;;;;;;18.96;100.00;101325.88;4992882;28;20033;-66
2023/06/21 05:16:59;;;;;;;30.08;26.15;;;;;;;19.02;100.00;101339.31;4992665;28;20030;-66
2023/06/21 05:19:24;;;;;;;30.95;27.15;;;;;;;19.08;100.00;101331.47;4992585;28;20048;-66
2023/06/21 05:21:50;;;;;;;31.25;27.13;;;;;;;19.14;100.00;101343.25;4992291;28;20105;-67
2023/06/21 05:24:15;;;;;;;30.27;26.38;;;;;;;19.22;100.00;101347.09;4992312;28;20030;-66
2023/06/21 05:26:44;;;;;;;31.10;26.35;;;;;;;19.25;100.00;101341.59;4992489;28;20050;-66
2023/06/21 05:29:13;;;;;;;32.05;27.88;;;;;;;19.31;100.00;101342.19;4992270;28;20104;-66
2023/06/21 05:31:42;;;;;;;32.00;28.17;;;;;;;19.30;100.00;101358.22;4992488;28;20081;-66
2023/06/21 05:34:07;;;;;;;32.38;27.92;;;;;;;19.26;100.00;101359.25;4992234;28;20057;-66
2023/06/21 05:36:33;;;;;;;33.85;28.17;;;;;;;19.21;100.00;101360.31;4992284;28;20475;-66
2023/06/21 05:38:58;;;;;;;32.42;27.95;;;;;;;19.24;100.00;101353.19;4992267;28;20231;-66
2023/06/21 05:41:23;;;;;;;32.40;27.02;;;;;;;19.31;100.00;101347.78;4992144;28;20046;-66
2023/06/21 05:43:49;;;;;;;31.70;27.65;;;;;;;19.38;100.00;101341.59;4992390;28;20077;-66
2023/06/21 05:46:14;;;;;;;31.20;26.38;;;;;;;19.52;100.00;101342.00;4991075;28;20375;-65
2023/06/21 05:48:40;;;;;;;31.00;27.48;;;;;;;19.55;100.00;101354.53;4992378;28;20022;-67
2023/06/21 05:51:05;;;;;;;30.20;25.60;;;;;;;19.57;100.00;101360.56;4992293;28;20034;-66
2023/06/21 05:53:31;;;;;;;30.20;26.42;;;;;;;19.49;100.00;101360.38;4992232;28;20042;-65
2023/06/21 05:55:56;;;;;;;32.00;26.58;;;;;;;19.36;100.00;101371.97;4992237;28;20106;-66
2023/06/21 05:58:22;;;;;;;30.45;26.50;;;;;;;19.37;100.00;101371.59;4992821;28;20391;-67
2023/06/21 06:00:47;;;;;;;32.00;26.20;;;;;;;19.42;100.00;101374.19;4995657;28;20037;-66
2023/06/21 06:03:12;;;;;;;32.08;24.88;;;;;;;19.53;100.00;101379.31;4995838;28;20109;-65
2023/06/21 06:05:38;;;;;;;30.25;25.40;;;;;;;19.54;100.00;101387.38;5008416;28;20033;-66
2023/06/21 06:08:03;;;;;;;31.52;25.25;;;;;;;19.60;100.00;101396.34;5015212;28;20034;-66
2023/06/21 06:10:29;;;;;;;29.00;24.10;;;;;;;19.77;100.00;101389.66;5013829;28;20021;-66
2023/06/21 06:12:54;;;;;;;28.50;23.83;;;;;;;19.95;100.00;101391.00;5015264;28;20060;-66
2023/06/21 06:15:19;;;;;;;28.88;25.00;;;;;;;20.14;100.00;101392.31;5013851;28;20073;-65
2023/06/21 06:17:46;;;;;;;29.63;24.92;;;;;;;20.29;100.00;101390.72;5015177;28;20465;-65
2023/06/21 06:20:12;;;;;;;29.27;24.95;;;;;;;20.41;100.00;101404.69;5014886;28;20386;-66
2023/06/21 06:22:37;;;;;;;31.05;24.50;;;;;;;20.47;100.00;101396.81;5014908;28;20030;-66
2023/06/21 06:25:03;;;;;;;30.10;25.50;;;;;;;20.50;100.00;101410.16;5014730;28;20473;-65
2023/06/21 06:27:29;;;;;;;30.13;25.58;;;;;;;20.42;100.00;101394.28;5014641;28;20469;-67
2023/06/21 06:29:54;;;;;;;28.40;22.67;;;;;;;20.46;100.00;101412.03;5014590;28;20057;-65
2023/06/21 06:32:20;;;;;;;28.60;23.20;;;;;;;20.42;100.00;101414.75;5014633;28;20018;-66
2023/06/21 06:34:45;;;;;;;27.60;22.05;;;;;;;20.36;100.00;101421.81;5014891;28;20070;-66
2023/06/21 06:37:11;;;;;;;29.00;22.40;;;;;;;20.34;100.00;101428.97;5014744;28;20597;-65
2023/06/21 06:39:37;;;;;;;26.90;21.40;;;;;;;20.32;100.00;101420.88;5015098;28;20029;-65
2023/06/21 06:42:02;;;;;;;27.55;21.63;;;;;;;20.42;100.00;101425.19;5014450;28;20386;-66
2023/06/21 06:44:28;;;;;;;26.27;21.13;;;;;;;20.45;100.00;101432.06;5014481;28;20458;-66
2023/06/21 06:46:53;;;;;;;25.35;19.98;;;;;;;20.50;100.00;101423.38;5014379;28;20022;-65
2023/06/21 06:49:18;;;;;;;26.83;21.00;;;;;;;20.48;100.00;101437.78;5012931;28;20065;-65
2023/06/21 06:51:45;;;;;;;24.50;20.02;;;;;;;20.54;100.00;101436.38;5012819;28;20048;-66
2023/06/21 06:54:11;;;;;;;27.65;21.23;;;;;;;20.52;100.00;101443.50;5014251;28;20484;-67
2023/06/21 06:56:36;;;;;;;26.52;21.27;;;;;;;20.58;100.00;101448.50;5012790;28;20026;-66
2023/06/21 06:59:02;;;;;;;26.40;21.85;;;;;;;20.60;100.00;101459.38;5014131;28;20025;-66
2023/06/21 07:01:27;;;;;;;25.15;21.05;;;;;;;20.65;100.00;101463.91;5009590;28;20030;-65
2023/06/21 07:03:53;;;;;;;25.92;20.88;;;;;;;20.79;99.91;101472.78;4994628;28;20053;-65
2023/06/21 07:06:18;;;;;;;26.70;21.05;;;;;;;20.96;98.73;101462.34;5010570;28;20033;-69
2023/06/21 07:08:44;;;;;;;25.05;19.90;;;;;;;21.14;96.88;101463.59;5012573;28;20489;-65
2023/06/21 07:11:10;;;;;;;25.98;20.92;;;;;;;21.20;95.54;101469.78;5012878;28;20072;-66
2023/06/21 07:13:36;;;;;;;25.90;21.40;;;;;;;21.08;95.03;101469.88;5013884;28;20111;-65
2023/06/21 07:16:01;;;;;;;26.10;20.25;;;;;;;21.02;95.56;101477.75;5014014;28;20045;-65
2023/06/21 07:18:26;;;;;;;25.00;20.55;;;;;;;20.94;95.38;101475.94;5012123;28;20506;-67
2023/06/21 07:20:52;;;;;;;26.27;20.83;;;;;;;21.01;97.10;101468.50;5007724;28;20037;-64
2023/06/21 07:23:18;;;;;;;26.65;21.67;;;;;;;20.90;96.68;101470.22;5008017;28;20058;-64
2023/06/21 07:25:43;;;;;;;25.42;21.23;;;;;;;20.87;96.93;101462.53;4992815;28;20446;-65
2023/06/21 07:28:09;;;;;;;26.73;21.10;;;;;;;20.87;95.63;101463.34;4991566;28;20054;-66
2023/06/21 07:30:34;;;;;;;26.63;21.83;;;;;;;20.91;96.12;101469.06;4993041;28;20038;-66
2023/06/21 07:33:00;;;;;;;26.13;21.23;;;;;;;20.91;95.24;101465.44;4993193;28;20034;-65
2023/06/21 07:35:26;;;;;;;26.55;22.15;;;;;;;20.92;95.61;101469.88;4992945;28;20046;-65
2023/06/21 07:37:52;;;;;;;26.50;22.13;;;;;;;20.97;95.02;101470.41;5003703;28;20030;-65
2023/06/21 07:40:17;;;;;;;24.73;20.17;;;;;;;21.03;94.69;101470.94;5012318;28;20033;-66
2023/06/21 07:42:43;;;;;;;24.75;19.35;;;;;;;21.08;93.35;101472.69;4997389;28;20030;-66
2023/06/21 07:45:09;;;;;;;24.80;19.30;;;;;;;21.18;93.36;101478.59;4992916;28;20045;-66
2023/06/21 07:47:34;;;;;;;25.30;19.50;;;;;;;21.28;93.02;101477.19;4993482;28;20049;-66
2023/06/21 07:50:00;;;;;;;23.80;18.40;;;;;;;21.39;92.63;101485.94;4992905;28;20030;-65
2023/06/21 07:52:25;;;;;;;24.45;17.85;;;;;;;21.41;91.01;101485.56;4992689;28;20031;-66
2023/06/21 07:54:51;;;;;;;22.48;17.17;;;;;;;21.50;92.06;101497.44;4992390;28;20042;-64
2023/06/21 07:57:17;;;;;;;23.55;17.40;;;;;;;21.48;89.70;101494.16;4992438;28;20040;-65
2023/06/21 07:59:43;;;;;;;23.70;18.05;;;;;;;21.48;90.05;101488.53;4992491;28;20466;-65
2023/06/21 08:02:13;;;;;;;24.27;18.27;;;;;;;21.48;90.09;101494.16;4992336;28;20029;-66
2023/06/21 08:04:39;;;;;;;22.70;17.40;;;;;;;21.60;90.00;101490.44;4992439;28;20058;-65
2023/06/21 08:07:04;;;;;;;22.27;17.02;;;;;;;21.54;87.11;101494.69;4992555;28;20132;-65
2023/06/21 08:09:29;;;;;;;22.40;16.20;;;;;;;21.63;88.62;101496.16;4990933;28;20038;-65
2023/06/21 08:11:55;;;;;;;22.27;15.35;;;;;;;21.75;89.58;101500.84;4992143;28;20030;-66
2023/06/21 08:14:20;;;;;;;21.92;16.52;;;;;;;21.79;87.18;101503.75;4992059;28;20067;-65
2023/06/21 08:16:45;;;;;;;21.70;16.08;;;;;;;21.81;85.01;101507.81;4991938;28;20081;-65
2023/06/21 08:19:11;;;;;;;22.60;16.10;;;;;;;21.83;86.47;101513.09;4991771;28;20474;-66
2023/06/21 08:21:36;;;;;;;24.15;17.60;;;;;;;21.84;86.03;101506.28;4990028;28;20034;-66
2023/06/21 08:24:02;;;;;;;22.23;17.15;;;;;;;21.94;85.68;101511.34;4990163;28;20031;-65
2023/06/21 08:26:27;;;;;;;22.38;17.27;;;;;;;21.97;84.65;101513.41;4991655;28;20093;-67
2023/06/21 08:28:52;;;;;;;22.52;17.33;;;;;;;22.11;84.62;101517.72;4991497;28;20061;-66
2023/06/21 08:31:17;;;;;;;22.48;18.08;;;;;;;22.17;85.10;101509.78;4991519;28;20078;-66
2023/06/21 08:33:43;;;;;;;23.10;19.08;;;;;;;22.15;83.48;101517.81;4989956;28;20027;-66
2023/06/21 08:36:08;;;;;;;23.27;18.65;;;;;;;22.18;81.83;101509.44;4991584;28;20034;-66
2023/06/21 08:38:34;;;;;;;24.38;19.65;;;;;;;22.21;83.58;101510.69;4990240;28;20586;-66
2023/06/21 08:41:03;;;;;;;24.77;19.88;;;;;;;22.25;83.59;101503.94;4991393;28;20056;-66
2023/06/21 08:43:29;;;;;;;23.70;19.08;;;;;;;22.38;82.67;101504.59;4991738;28;20041;-67
2023/06/21 08:45:55;;;;;;;24.13;18.75;;;;;;;22.43;80.33;101512.78;4991304;28;20184;-65
2023/06/21 08:48:22;;;;;;;23.50;18.67;;;;;;;22.48;81.11;101513.66;4991390;28;20466;-66
2023/06/21 08:50:49;;;;;;;24.75;19.75;;;;;;;22.54;80.08;101515.00;4991517;28;20038;-66
2023/06/21 08:53:22;;;;;;;23.92;19.33;;;;;;;22.56;79.33;101513.47;4991370;28;20026;-66
2023/06/21 08:55:49;;;;;;;20.42;14.02;;;;;;;22.54;72.82;101515.81;4990203;28;20042;-66
2023/06/21 08:58:18;;;;;;;21.30;15.13;;;;;;;22.56;72.00;101512.63;4991340;28;20136;-66
2023/06/21 09:00:50;;;;;;;24.15;18.27;;;;;;;22.68;76.90;101514.47;4991397;28;20031;-66
2023/06/21 09:03:26;;;;;;;26.00;17.88;;;;;;;22.80;77.76;101530.41;4991231;28;20096;-66
2023/06/21 09:06:10;;;;;;;21.48;16.02;;;;;;;22.89;76.09;101517.69;4991465;28;20107;-67
2023/06/21 09:08:39;;;;;;;21.52;16.30;;;;;;;22.91;73.40;101514.47;4991469;28;20076;-67
2023/06/21 09:11:05;;;;;;;21.67;17.30;;;;;;;23.00;73.01;101526.31;4991458;28;20123;-66
2023/06/21 09:13:34;;;;;;;26.60;17.42;;;;;;;23.02;73.17;101523.94;4991614;28;20030;-67
2023/06/21 09:16:01;;;;;;;21.40;15.90;;;;;;;23.12;74.14;101527.34;4991184;28;20031;-66
2023/06/21 09:18:35;;;;;;;22.55;14.68;;;;;;;23.18;70.09;101523.88;4991310;28;20033;-66
2023/06/21 09:21:02;;;;;;;24.45;15.65;;;;;;;23.27;72.15;101537.72;4991036;28;20062;-66
2023/06/21 09:23:27;;;;;;;21.23;15.57;;;;;;;23.28;71.56;101542.19;4991007;28;20049;-66
2023/06/21 09:25:53;;;;;;;18.52;12.10;;;;;;;23.25;65.63;101548.56;4991161;28;20026;-66
2023/06/21 09:28:18;;;;;;;20.10;12.90;;;;;;;23.28;66.06;101541.34;4991596;28;20046;-66
2023/06/21 09:30:44;;;;;;;19.90;13.38;;;;;;;23.28;66.39;101549.81;4991463;28;20072;-66
2023/06/21 09:33:10;;;;;;;20.05;13.48;;;;;;;23.29;67.09;101549.44;4991343;28;20097;-66
2023/06/21 09:35:38;;;;;;;20.35;14.05;;;;;;;23.45;67.57;101551.31;4995032;28;20125;-66
2023/06/21 09:38:32;;;;;;;20.05;13.50;;;;;;;23.47;68.33;101540.47;4993863;28;20471;-66
2023/06/21 09:40:58;;;;;;;20.98;14.30;;;;;;;23.53;66.63;101545.41;4995255;28;20022;-66
2023/06/21 09:43:23;;;;;;;22.77;13.68;;;;;;;23.64;66.67;101548.41;4995199;28;20378;-67
2023/06/21 09:46:07;;;;;;;25.10;14.23;;;;;;;23.75;67.96;101539.28;4995235;28;20046;-66
2023/06/21 09:48:37;;;;;;;22.25;14.40;;;;;;;23.82;65.72;101553.50;4995565;28;20030;-66
2023/06/21 09:51:08;;;;;;;22.70;13.77;;;;;;;23.74;65.96;101546.94;4995406;28;20045;-66
2023/06/21 09:53:35;;;;;;;19.10;12.15;;;;;;;23.95;65.33;101559.78;4995505;28;20072;-67
2023/06/21 09:56:01;;;;;;;18.63;11.63;;;;;;;24.00;63.72;101556.59;4995056;28;20068;-67
2023/06/21 09:58:27;;;;;;;18.35;11.45;;;;;;;23.91;60.96;101556.88;4994965;28;20027;-68
2023/06/21 10:00:54;;;;;;;24.90;12.77;;;;;;;23.99;64.05;101555.81;4995075;28;20026;-67
2023/06/21 10:03:24;;;;;;;22.33;13.73;;;;;;;24.11;64.80;101553.94;4994811;28;20129;-67
2023/06/21 10:05:57;;;;;;;20.23;13.05;;;;;;;24.26;63.34;101558.59;4994954;28;20053;-67
2023/06/21 10:08:28;;;;;;;20.33;12.90;;;;;;;24.34;63.37;101551.03;4995256;28;20037;-66
2023/06/21 10:10:54;;;;;;;20.25;13.13;;;;;;;24.43;62.89;101567.69;4995217;28;20030;-67
2023/06/21 10:13:38;;;;;;;41.20;17.13;;;;;;;24.42;62.22;101538.59;4994981;28;20644;-66
2023/06/21 10:16:04;;;;;;;19.65;12.73;;;;;;;24.61;61.68;101559.41;4994399;28;20049;-65
2023/06/21 10:18:31;;;;;;;27.17;13.95;;;;;;;24.67;62.79;101552.22;4994176;28;20030;-68
2023/06/21 10:21:01;;;;;;;24.58;12.60;;;;;;;24.83;60.88;101554.84;4994270;28;20030;-68
2023/06/21 10:23:36;;;;;;;19.17;11.65;;;;;;;25.07;60.89;101564.78;4994257;28;20042;-65
2023/06/21 10:26:04;;;;;;;18.30;11.50;;;;;;;25.15;58.86;101571.34;4993939;28;20034;-65
2023/06/21 10:28:37;;;;;;;19.27;11.20;;;;;;;25.22;58.66;101570.59;4993867;28;20755;-65
2023/06/21 10:31:04;;;;;;;18.90;12.48;;;;;;;25.22;58.51;101576.25;4993946;28;20412;-65
2023/06/21 10:33:32;;;;;;;20.20;12.70;;;;;;;25.23;59.89;101569.38;4994124;28;20027;-65
2023/06/21 10:36:00;;;;;;;19.40;12.25;;;;;;;25.30;58.57;101575.13;4994357;28;20078;-65
2023/06/21 10:38:31;;;;;;;18.20;11.85;;;;;;;25.53;58.79;101574.94;4992978;28;20113;-65
2023/06/21 10:40:59;;;;;;;19.30;12.93;;;;;;;25.55;58.54;101580.22;4994156;28;20036;-65
2023/06/21 10:43:24;;;;;;;18.27;11.70;;;;;;;25.67;57.92;101587.56;4993860;28;20040;-66
2023/06/21 10:45:51;;;;;;;18.33;11.90;;;;;;;25.63;56.83;101579.06;4993298;28;20125;-67
2023/06/21 10:48:17;;;;;;;18.30;11.90;;;;;;;25.67;57.86;101585.56;4992485;28;20023;-67
2023/06/21 10:50:43;;;;;;;17.90;11.80;;;;;;;25.78;58.13;101587.66;4993737;28;20031;-65
2023/06/21 10:53:09;;;;;;;17.42;11.43;;;;;;;25.76;57.11;101592.91;4993582;28;20029;-66
2023/06/21 10:55:37;;;;;;;17.10;10.57;;;;;;;25.67;55.46;101594.06;4993848;28;20572;-66
2023/06/21 10:58:03;;;;;;;17.73;10.48;;;;;;;25.78;56.02;101596.97;4994255;28;20050;-67
2023/06/21 11:00:29;;;;;;;17.33;10.43;;;;;;;25.73;55.46;101603.03;4994103;28;20042;-65
2023/06/21 11:02:55;;;;;;;18.30;10.88;;;;;;;25.71;55.89;101605.44;5004580;28;20022;-66